createdAt,value
2022-12-03T00:01:34.371Z,-0.30
2022-12-03T00:06:35.854Z,-0.30
2022-12-03T00:23:08.112Z,-0.20
2022-12-03T00:28:09.590Z,-0.30
2022-12-03T00:33:11.057Z,-0.30
2022-12-03T00:43:41.717Z,-0.20
2022-12-03T00:48:43.170Z,-0.20
2022-12-03T00:53:44.661Z,-0.20
2022-12-03T00:58:46.438Z,-0.20
2022-12-03T01:09:21.730Z,-0.30
2022-12-03T01:20:06.745Z,-0.20
2022-12-03T01:36:17.563Z,-0.30
2022-12-03T01:41:19.018Z,-0.30
2022-12-03T01:46:20.521Z,-0.20
2022-12-03T02:08:28.823Z,-0.20
2022-12-03T02:13:30.392Z,-0.20
2022-12-03T02:18:31.891Z,-0.30
2022-12-03T02:29:01.728Z,-0.20
2022-12-03T02:34:03.190Z,-0.20
2022-12-03T02:39:04.710Z,-0.20
2022-12-03T03:01:08.741Z,-0.40
2022-12-03T03:06:10.238Z,-0.40
2022-12-03T03:11:11.681Z,-0.50
2022-12-03T03:16:15.368Z,-0.50
2022-12-03T03:26:57.038Z,-0.50
2022-12-03T03:37:41.739Z,-0.50
2022-12-03T03:48:26.705Z,-0.50
2022-12-03T03:59:04.663Z,-0.50
2022-12-03T04:09:52.031Z,-0.40
2022-12-03T04:14:53.750Z,-0.40
2022-12-03T04:19:58.397Z,-0.50
2022-12-03T04:30:25.696Z,-0.50
2022-12-03T04:41:06.821Z,-0.50
2022-12-03T04:46:10.429Z,-0.50
2022-12-03T04:51:11.965Z,-0.50
2022-12-03T05:07:25.916Z,-0.40
2022-12-03T05:18:13.648Z,-0.40
2022-12-03T05:23:15.145Z,-0.30
2022-12-03T05:39:16.782Z,-0.40
2022-12-03T05:55:24.753Z,-0.30
2022-12-03T06:06:00.938Z,-0.30
2022-12-03T06:16:46.818Z,-0.20
2022-12-03T06:21:49.382Z,-0.20
2022-12-03T06:26:50.857Z,-0.20
2022-12-03T06:31:52.438Z,-0.30
2022-12-03T06:42:19.849Z,-0.20
2022-12-03T06:47:21.331Z,-0.30
2022-12-03T07:09:33.690Z,-0.20
2022-12-03T07:37:23.421Z,-0.10
2022-12-03T07:47:56.686Z,-0.10
2022-12-03T08:04:15.760Z,0.10
2022-12-03T08:09:17.222Z,0.10
2022-12-03T08:25:45.680Z,0.30
2022-12-03T08:30:47.138Z,0.30
2022-12-03T08:35:48.576Z,0.40
2022-12-03T08:46:28.806Z,0.50
2022-12-03T09:13:41.640Z,0.70
2022-12-03T10:10:22.316Z,1.30
2022-12-03T10:21:10.050Z,1.40
2022-12-03T10:26:11.622Z,1.40
2022-12-03T10:48:20.705Z,1.60
2022-12-03T11:04:53.109Z,1.60
2022-12-03T11:09:54.834Z,1.70
2022-12-03T11:14:57.044Z,1.60
2022-12-03T11:19:58.742Z,1.60
2022-12-03T11:25:00.291Z,1.60
2022-12-03T11:30:01.866Z,1.60
2022-12-03T11:35:03.408Z,1.70
2022-12-03T11:45:37.816Z,1.70
2022-12-03T12:12:54.947Z,1.80
2022-12-03T12:17:56.832Z,1.80
2022-12-03T12:22:58.364Z,1.90
2022-12-03T12:56:04.726Z,2.00
2022-12-03T13:01:14.755Z,2.10
2022-12-03T13:11:35.404Z,2.20
2022-12-03T13:33:44.521Z,2.20
2022-12-03T13:38:46.049Z,2.20
2022-12-03T13:55:00.070Z,2.20
2022-12-03T14:11:27.299Z,2.20
2022-12-03T14:16:29.113Z,2.20
2022-12-03T14:56:06.950Z,2.20
2022-12-03T15:01:08.877Z,2.20
2022-12-03T15:06:12.748Z,2.20
2022-12-03T15:11:15.066Z,2.20
2022-12-03T15:22:02.964Z,2.10
2022-12-03T15:27:07.529Z,2.10
2022-12-03T15:42:43.823Z,2.10
2022-12-03T15:47:45.348Z,2.00
2022-12-03T16:14:56.606Z,2.00
2022-12-03T16:19:58.072Z,2.00
2022-12-03T16:30:29.953Z,2.00
2022-12-03T17:10:22.077Z,2.10
2022-12-03T17:15:23.578Z,2.10
2022-12-03T17:37:06.582Z,2.10
2022-12-03T18:04:37.207Z,2.20
2022-12-03T18:09:38.634Z,2.30
2022-12-03T18:14:40.053Z,2.30
2022-12-03T18:30:54.776Z,2.50
2022-12-03T18:35:56.214Z,2.50
2022-12-03T18:40:57.645Z,2.50
2022-12-03T18:45:59.078Z,2.50
2022-12-03T18:51:00.584Z,2.50
2022-12-03T18:56:02.014Z,2.50
2022-12-03T19:01:03.688Z,2.50
2022-12-03T19:06:05.225Z,2.60
2022-12-03T19:11:06.857Z,2.50
2022-12-03T19:16:08.551Z,2.50
2022-12-03T19:21:10.065Z,2.50
2022-12-03T19:26:11.498Z,2.60
2022-12-03T19:31:13.217Z,2.60
2022-12-03T19:36:14.739Z,2.70
2022-12-03T19:41:16.215Z,2.70
2022-12-03T19:46:17.932Z,2.70
2022-12-03T19:51:34.064Z,2.60
2022-12-03T19:56:36.347Z,2.70
2022-12-03T20:01:37.816Z,2.70
2022-12-03T20:06:39.339Z,2.70
2022-12-03T20:11:40.788Z,2.60
2022-12-03T20:16:42.416Z,2.60
2022-12-03T20:21:44.236Z,2.60
2022-12-03T20:26:45.709Z,2.70
2022-12-03T20:31:47.228Z,2.60
2022-12-03T20:36:48.762Z,2.60
2022-12-03T20:41:50.212Z,2.60
2022-12-03T20:46:51.680Z,2.60
2022-12-03T20:51:53.131Z,2.60
2022-12-03T20:56:54.605Z,2.70
2022-12-03T21:01:56.207Z,2.70
2022-12-03T21:06:57.784Z,2.70
2022-12-03T21:11:59.212Z,2.70
2022-12-03T21:17:08.374Z,2.70
2022-12-03T21:22:12.065Z,2.60
2022-12-03T21:27:21.332Z,2.60
2022-12-03T21:32:23.199Z,2.60
2022-12-03T21:37:24.638Z,2.60
2022-12-03T21:42:36.493Z,2.60
2022-12-03T21:47:38.774Z,2.60
2022-12-03T21:52:40.276Z,2.60
2022-12-03T21:57:41.741Z,2.70
2022-12-03T22:02:43.214Z,2.70
2022-12-03T22:07:44.792Z,2.60
2022-12-03T22:12:46.323Z,2.70
2022-12-03T22:17:47.786Z,2.70
2022-12-03T22:22:49.217Z,2.70
2022-12-03T22:27:50.657Z,2.70
2022-12-03T22:32:52.101Z,2.70
2022-12-03T22:37:53.541Z,2.70
2022-12-03T22:42:54.978Z,2.70
2022-12-03T22:47:56.414Z,2.60
2022-12-03T22:52:57.908Z,2.60
2022-12-03T22:57:59.361Z,2.60
2022-12-03T23:03:00.895Z,2.60
2022-12-03T23:08:02.497Z,2.60
2022-12-03T23:13:04.003Z,2.60
2022-12-03T23:18:05.441Z,2.60
2022-12-03T23:23:06.947Z,2.60
2022-12-03T23:28:08.421Z,2.60
2022-12-03T23:33:09.859Z,2.60
2022-12-03T23:38:11.298Z,2.60
2022-12-03T23:43:12.765Z,2.50
2022-12-03T23:48:14.249Z,2.50
2022-12-03T23:53:15.888Z,2.50
2022-12-03T23:58:17.383Z,2.60
